Airfield :
LOGIN :

Register | Disclaimer

   EN    FR    IT 

 










Legend :    VFR   Marginal VFR   IFR   Intensive IFR   Very Intensive IFR
Visi :
Ceiling :
>= 8 km
>= 3000ft
5 to 8 km
1000 to 3000 ft
1500m to 5 km
500 to 1000 ft
800 to 1500m
200 to 500 ft
< 800m
< 200 ft
Symbols :   Thunderstorms  Fog  Heavy snow  Heavy precipitations  Wind > 20 kt
SIGMETs :     Misc.  Thunderstorms  Icing  Turbulence  Mountain Waves  Volcanic Ashes






- Airport Elevation : 83 ft
- IATA code : LHR


EGLL - London Heathrow

CURRENT METAR :
  • 141120Z 21012KT 180V240 9999 FEW040CB 15/12 Q1001 NOSIG

EXPIRED METARs :
  • 141050Z 23015KT 9000 -SHRA FEW028CB SCT043 15/12 Q1002 RESHRA TEMPO SHRA
  • 141020Z 21015KT 180V250 6000 SHRA SCT026CB BKN032 BKN041 17/10 Q1001 RESHRA NOSIG
  • 140950Z AUTO 21011KT 9999 SCT028 BKN037 BKN044 17/10 Q1001 TEMPO SHRA
  • 140920Z AUTO 23016KT 9999 FEW028 BKN032 BKN040 16/09 Q1001 TEMPO SHRA
  • 140850Z AUTO 23014KT 9999 SCT023 SCT029 BKN034 16/10 Q1001
  • 140820Z AUTO 23012KT 9999 SCT020 SCT024 BKN033 15/11 Q1002 NOSIG
  • 140750Z AUTO 23013KT 9999 BKN017 BKN022 BKN030 15/11 Q1002
  • 140720Z AUTO 22011KT 9999 BKN015 14/11 Q1001
  • 140650Z AUTO 23011KT 9999 SCT014 BKN019 14/11 Q1001 NOSIG

TAF AMD TAF EGLL
Valid from the 14 at 06:00 until the 15 at 12:00 UTC


140649Z 1406/1512 21010KT 9999 BKN014
BECMG 1406/1409 SCT030
TEMPO 1409/1424 7000 SHRA
PROB40
TEMPO 1410/1421 24016G26KT 4000 +SHRA
PROB40
TEMPO 1509/1512 25016G26KT 7000 SHRA



MET'MAP, your aeronautical weather chart ! - Copyright ORBIFLY December 2007 - Disclaimer

ORBIFLY MET'MAP TEAM :

Programming & Development : Alexandra Zaïnal
Original concept : Baudouin d'Aumeries
Technical & hardware support : Manuel Goepfert
Assistance : Marc-Olivier Méhu




SOURCES & CREDITS :

   NOAA